Bensenville, Illinois
Current Conditions -  °F | °C
As of 4:51 PM on Friday 28 Nov 2014 (Local Time) from KORD Reporting Station
Overcast Overcast  
Wind Chill: 21°   Ceiling: 2000
Heat Index: 31°   Visibility: 10mi
Dew Point: 25°   Wind: 13mph
Humidity: 79%   Direction: 180°S
Pressure: 29.97"   Gusts: NA
Location:  41.96°N, 87.94°W
Report Text: KORD 282251Z 18011KT 10SM OVC020 M01/M04 A2997 RMK AO2 SLP159 T10061039
Loading
Personal Weather Stations






























Interactive Weather Map New forecast layout! Learn more

10-Day Weather Forecast

Advertisements
Track Severe Weather on mobile